Time;durP1;ratioP1;P1;durP2;ratioP2;P2;SDS_P1;SDS_P2;PMS_P1;PMS_P2;Temp;Humidity;BMP_temperature;BMP_pressure;BME280_temperature;BME280_humidity;BME280_pressure;Samples;Min_cycle;Max_cycle;Signal;HPM_P1;HPM_P2
2023/05/10 00:02:43;;;;;;;1.10;0.90;;;;;;;15.29;85.13;98541.38;7377887;39;21135;31
2023/05/10 00:08:18;;;;;;;0.80;0.80;;;;;;;15.24;84.84;98538.47;7397236;39;20235;31
2023/05/10 00:13:38;;;;;;;0.90;0.90;;;;;;;15.27;84.99;98548.06;7421450;39;20350;31
2023/05/10 00:19:15;;;;;;;1.63;1.10;;;;;;;15.25;84.77;98544.75;7464230;38;20387;31
2023/05/10 00:24:35;;;;;;;1.20;1.10;;;;;;;15.19;84.27;98551.84;7435886;39;20258;31
2023/05/10 00:29:56;;;;;;;2.03;1.00;;;;;;;15.22;84.90;98551.44;7421702;39;20331;31
2023/05/10 00:35:31;;;;;;;1.35;0.90;;;;;;;15.21;84.90;98548.94;7377112;39;21235;31
2023/05/10 00:41:03;;;;;;;0.97;0.93;;;;;;;15.22;84.65;98558.75;7391954;39;20474;31
2023/05/10 00:46:39;;;;;;;0.93;0.87;;;;;;;15.16;84.25;98549.56;7420071;39;20265;31
2023/05/10 00:52:13;;;;;;;0.70;0.70;;;;;;;15.15;84.81;98553.31;7368371;39;20278;31
2023/05/10 00:57:33;;;;;;;0.93;0.93;;;;;;;15.17;84.33;98562.09;7372482;39;20263;31
2023/05/10 01:02:50;;;;;;;1.25;1.15;;;;;;;15.10;84.54;98558.53;7401549;39;20259;31
2023/05/10 01:08:27;;;;;;;1.30;1.00;;;;;;;15.08;84.95;98560.66;7472833;38;20226;31
2023/05/10 01:14:02;;;;;;;1.73;1.10;;;;;;;15.18;85.49;98558.31;7421903;39;20235;31
2023/05/10 01:19:49;;;;;;;1.50;1.13;;;;;;;15.20;84.94;98548.09;7401313;39;22071;31
2023/05/10 01:25:31;;;;;;;1.50;1.20;;;;;;;15.14;85.14;98557.06;7357725;39;20244;31
2023/05/10 01:31:09;;;;;;;1.30;1.20;;;;;;;15.09;85.66;98556.06;7401172;39;20828;31
2023/05/10 01:36:46;;;;;;;1.45;1.30;;;;;;;15.09;85.96;98559.59;7400433;39;20263;31
2023/05/10 01:42:18;;;;;;;1.30;1.20;;;;;;;15.12;86.69;98556.47;7339755;39;20395;31
2023/05/10 01:47:50;;;;;;;1.30;1.20;;;;;;;15.16;86.55;98571.28;7327568;39;21323;31
2023/05/10 01:53:23;;;;;;;1.65;1.40;;;;;;;15.17;86.60;98566.69;7317851;39;21962;31
2023/05/10 02:03:59;;;;;;;1.30;1.20;;;;;;;15.15;87.13;98572.31;7399130;39;20275;31
2023/05/10 02:09:32;;;;;;;1.23;1.10;;;;;;;15.20;87.17;98574.41;7380466;39;21374;31
2023/05/10 02:15:04;;;;;;;1.60;1.20;;;;;;;15.15;86.93;98576.91;7387705;39;20357;31
2023/05/10 02:25:45;;;;;;;3.10;1.50;;;;;;;15.14;87.78;98581.50;7422473;39;20402;31
2023/05/10 02:31:18;;;;;;;1.70;1.35;;;;;;;15.20;87.57;98585.25;7394499;39;22030;31
2023/05/10 02:41:55;;;;;;;1.80;1.40;;;;;;;15.16;86.45;98594.88;7420725;39;20289;31
2023/05/10 02:52:31;;;;;;;2.47;1.60;;;;;;;15.19;86.73;98600.72;7463881;39;20276;31
2023/05/10 03:03:08;;;;;;;2.23;1.70;;;;;;;15.08;86.38;98604.06;7460060;39;20262;31
2023/05/10 03:13:47;;;;;;;1.80;1.70;;;;;;;15.10;85.92;98595.69;7442814;39;20266;31
2023/05/10 03:24:24;;;;;;;2.00;1.73;;;;;;;15.07;86.27;98590.72;7436623;39;20295;31
2023/05/10 03:29:56;;;;;;;2.45;1.70;;;;;;;15.06;86.21;98602.59;7442359;39;21196;31
2023/05/10 03:35:28;;;;;;;2.97;2.17;;;;;;;14.92;86.33;98612.63;7428589;39;22318;31
2023/05/10 03:41:01;;;;;;;2.75;1.90;;;;;;;14.94;86.74;98620.56;7443000;39;20350;31
2023/05/10 03:46:21;;;;;;;5.83;2.30;;;;;;;14.98;86.18;98619.94;7358244;39;21885;31
2023/05/10 03:51:39;;;;;;;2.20;2.00;;;;;;;14.92;86.52;98637.03;7396276;39;21348;31
2023/05/10 03:57:15;;;;;;;3.30;2.20;;;;;;;14.83;86.76;98632.88;7400164;39;20304;31
2023/05/10 04:02:32;;;;;;;3.05;2.40;;;;;;;14.83;86.62;98644.56;7395205;39;20261;31
2023/05/10 04:08:07;;;;;;;2.90;2.50;;;;;;;14.76;87.58;98643.72;7445432;39;20250;31
2023/05/10 04:13:38;;;;;;;3.57;2.40;;;;;;;14.77;86.74;98639.13;7426281;39;20278;31
2023/05/10 04:23:59;;;;;;;2.60;2.40;;;;;;;14.75;87.33;98641.22;7442601;39;20376;31
2023/05/10 04:29:32;;;;;;;3.25;2.45;;;;;;;14.72;87.23;98630.78;7444751;39;20379;31
2023/05/10 04:39:53;;;;;;;3.63;2.40;;;;;;;14.80;87.69;98646.84;7441187;39;20303;31
2023/05/10 04:45:24;;;;;;;3.30;2.50;;;;;;;14.75;87.35;98636.63;7442540;39;20292;31
2023/05/10 04:50:44;;;;;;;3.37;2.70;;;;;;;14.80;87.20;98641.44;7408291;39;20334;31
2023/05/10 04:56:02;;;;;;;2.40;2.20;;;;;;;14.82;87.85;98650.22;7380349;39;21481;31
2023/05/10 05:01:34;;;;;;;4.00;2.15;;;;;;;14.83;87.45;98647.25;7401811;39;21267;31
2023/05/10 05:07:06;;;;;;;2.45;2.00;;;;;;;14.77;87.45;98637.25;7399964;39;20456;31
2023/05/10 05:12:38;;;;;;;2.20;2.00;;;;;;;14.74;87.65;98656.66;7419618;39;21291;31
2023/05/10 05:18:14;;;;;;;1.90;1.70;;;;;;;14.73;86.97;98649.56;7363079;39;20343;31
2023/05/10 05:23:47;;;;;;;2.65;1.52;;;;;;;14.78;87.07;98644.37;7399030;39;20318;31
2023/05/10 05:29:23;;;;;;;1.80;1.70;;;;;;;14.88;86.67;98652.91;7193833;39;21172;31
2023/05/10 05:34:57;;;;;;;2.15;1.95;;;;;;;14.84;86.58;98664.38;7406757;39;21517;31
2023/05/10 05:40:17;;;;;;;1.90;1.80;;;;;;;14.89;87.01;98664.59;7380819;39;20399;31
2023/05/10 05:45:35;;;;;;;1.73;1.63;;;;;;;14.93;86.36;98681.31;7419402;39;21295;31
2023/05/10 05:56:13;;;;;;;2.70;1.80;;;;;;;14.85;86.16;98694.03;7436719;38;20236;31
2023/05/10 06:01:48;;;;;;;2.30;1.87;;;;;;;14.92;85.45;98696.75;7463632;39;20333;31
2023/05/10 06:07:25;;;;;;;4.90;2.10;;;;;;;14.88;85.59;98696.31;7426685;39;20283;31
2023/05/10 06:12:57;;;;;;;2.00;1.80;;;;;;;14.86;85.47;98703.03;7445356;39;20317;31
2023/05/10 06:18:32;;;;;;;3.40;1.70;;;;;;;14.76;85.57;98708.84;7401224;39;20243;31
2023/05/10 06:24:05;;;;;;;2.23;1.70;;;;;;;14.91;86.07;98722.25;7340749;39;21273;31
2023/05/10 06:34:43;;;;;;;3.40;1.67;;;;;;;14.99;84.99;98730.19;7415151;39;20403;31
2023/05/10 06:45:18;;;;;;;2.63;1.63;;;;;;;15.14;84.71;98724.53;7440738;39;20270;31
2023/05/10 06:50:51;;;;;;;2.10;1.53;;;;;;;15.30;84.68;98722.28;7421646;39;20266;31
2023/05/10 06:56:24;;;;;;;1.90;1.70;;;;;;;15.38;83.75;98723.94;7386585;39;21315;31
2023/05/10 07:02:01;;;;;;;2.50;1.40;;;;;;;15.32;83.49;98722.06;7421662;39;20330;31
2023/05/10 07:07:37;;;;;;;1.70;1.60;;;;;;;15.39;83.95;98724.78;7448793;39;20411;31
2023/05/10 07:17:59;;;;;;;1.45;1.30;;;;;;;15.66;79.79;98740.06;7461688;39;20473;31
2023/05/10 07:23:36;;;;;;;1.40;1.30;;;;;;;15.60;79.06;98735.47;7450100;39;20254;31
2023/05/10 07:28:56;;;;;;;4.20;1.50;;;;;;;15.70;77.83;98753.03;7440771;39;20247;31
2023/05/10 07:34:14;;;;;;;1.60;1.50;;;;;;;15.72;78.99;98748.19;7423936;39;21182;31
2023/05/10 07:39:50;;;;;;;1.40;1.30;;;;;;;15.73;78.26;98746.31;7425910;39;20345;31
2023/05/10 07:45:24;;;;;;;2.37;1.80;;;;;;;15.73;78.82;98743.59;7408059;39;20415;31
2023/05/10 07:50:42;;;;;;;2.13;1.50;;;;;;;15.73;79.39;98752.59;7381563;39;20251;31
2023/05/10 07:56:19;;;;;;;1.50;1.40;;;;;;;15.75;78.75;98757.81;7360877;39;20312;31
2023/05/10 08:01:40;;;;;;;1.65;1.55;;;;;;;15.88;79.36;98763.25;7415122;39;21316;31
2023/05/10 08:07:00;;;;;;;4.10;1.50;;;;;;;15.84;78.62;98767.41;7470607;38;20244;31
2023/05/10 08:12:36;;;;;;;2.30;1.40;;;;;;;16.05;78.45;98763.63;7489173;38;20293;31
2023/05/10 08:17:54;;;;;;;1.80;1.30;;;;;;;16.40;77.57;98775.88;7482934;38;21250;31
2023/05/10 08:23:14;;;;;;;1.60;1.30;;;;;;;16.37;77.24;98768.13;7486187;38;20264;31
2023/05/10 08:28:46;;;;;;;1.40;1.30;;;;;;;16.30;76.27;98767.31;7441917;39;20386;31
2023/05/10 08:34:04;;;;;;;1.70;1.35;;;;;;;16.24;77.60;98774.44;7449552;39;20329;31
2023/05/10 08:39:21;;;;;;;2.10;1.00;;;;;;;16.21;77.19;98784.94;7444750;39;20377;31
2023/05/10 08:44:57;;;;;;;2.70;1.60;;;;;;;16.04;76.36;98789.97;7459851;39;20252;31
2023/05/10 08:50:30;;;;;;;2.40;1.20;;;;;;;15.84;76.74;98783.72;7441846;39;20265;31
2023/05/10 08:56:02;;;;;;;2.50;1.20;;;;;;;15.96;76.66;98803.81;7407569;39;21237;31
2023/05/10 09:01:36;;;;;;;1.57;1.10;;;;;;;16.17;76.70;98806.28;7419132;39;20270;31
2023/05/10 09:12:16;;;;;;;3.57;1.03;;;;;;;16.30;74.33;98799.97;7463025;38;20264;31
2023/05/10 09:22:54;;;;;;;1.50;1.30;;;;;;;16.46;72.29;98821.25;7466494;39;20368;31
2023/05/10 09:28:26;;;;;;;1.10;1.00;;;;;;;16.55;71.65;98821.84;7461436;39;21256;31
2023/05/10 09:33:59;;;;;;;1.47;1.20;;;;;;;16.55;72.28;98830.03;7397309;39;21278;31
2023/05/10 09:39:37;;;;;;;1.80;1.30;;;;;;;16.34;72.80;98836.56;7377229;39;21273;31
2023/05/10 09:44:54;;;;;;;1.55;1.25;;;;;;;16.20;72.68;98854.78;7358511;39;21329;31
2023/05/10 09:50:29;;;;;;;1.20;1.07;;;;;;;16.27;72.86;98848.53;7398207;39;20247;31
2023/05/10 09:56:02;;;;;;;4.03;1.43;;;;;;;16.39;72.37;98838.66;7416191;39;21195;31
2023/05/10 10:01:35;;;;;;;4.30;1.50;;;;;;;16.59;72.18;98826.69;7376318;39;20261;31
2023/05/10 10:07:13;;;;;;;1.40;1.30;;;;;;;16.75;71.52;98835.44;7445375;39;20253;31
2023/05/10 10:12:47;;;;;;;1.65;1.45;;;;;;;16.96;70.88;98837.88;7387636;39;20354;31
2023/05/10 10:18:23;;;;;;;2.80;1.43;;;;;;;17.10;69.95;98834.87;7439973;39;20252;31
2023/05/10 10:23:40;;;;;;;5.27;1.53;;;;;;;17.32;70.71;98832.66;7376222;39;20253;31
2023/05/10 10:29:31;;;;;;;1.80;1.30;;;;;;;17.65;67.22;98842.53;7395873;39;20274;31
2023/05/10 10:35:02;;;;;;;2.10;1.40;;;;;;;17.27;66.40;98856.16;7399208;39;21347;31
2023/05/10 10:40:41;;;;;;;2.10;1.20;;;;;;;16.77;67.36;98845.06;7409206;39;21170;31
2023/05/10 10:46:29;;;;;;;3.13;1.37;;;;;;;16.44;67.30;98853.31;7379148;39;20296;31
2023/05/10 10:52:30;;;;;;;2.40;1.40;;;;;;;16.29;67.99;98868.16;7409769;39;20248;31
2023/05/10 10:58:02;;;;;;;1.70;1.23;;;;;;;16.33;68.29;98863.97;7374466;39;20261;31
2023/05/10 11:08:43;;;;;;;2.67;1.10;;;;;;;16.38;64.63;98870.47;7416402;39;21177;31
2023/05/10 11:19:23;;;;;;;3.00;1.10;;;;;;;16.57;64.38;98866.91;7383674;39;21515;31
2023/05/10 11:30:00;;;;;;;2.80;1.20;;;;;;;16.67;63.18;98869.19;7452017;38;20576;31
2023/05/10 11:40:53;;;;;;;2.03;1.30;;;;;;;16.84;63.48;98870.38;7442037;39;21280;31
2023/05/10 11:46:28;;;;;;;2.95;1.40;;;;;;;16.96;60.58;98874.09;7420607;39;21288;31
2023/05/10 11:52:00;;;;;;;1.73;1.10;;;;;;;17.33;60.28;98868.91;7407590;39;20330;31
2023/05/10 11:57:32;;;;;;;1.97;1.20;;;;;;;17.40;59.45;98883.31;7400695;39;20285;31
2023/05/10 12:03:06;;;;;;;1.63;1.43;;;;;;;17.65;58.90;98881.53;7419996;39;21420;31
2023/05/10 12:08:41;;;;;;;1.20;1.10;;;;;;;17.70;58.30;98884.44;7430684;38;20336;31
2023/05/10 12:14:00;;;;;;;1.57;1.10;;;;;;;17.78;57.72;98894.22;7462977;39;20257;31
2023/05/10 12:19:35;;;;;;;1.95;1.05;;;;;;;17.55;56.75;98887.41;7443165;39;20265;31
2023/05/10 12:24:55;;;;;;;4.10;1.10;;;;;;;17.93;58.34;98881.97;7399995;39;20390;31
2023/05/10 12:30:14;;;;;;;2.50;1.00;;;;;;;18.40;57.87;98890.56;7357933;39;20422;31
2023/05/10 12:35:48;;;;;;;1.23;0.93;;;;;;;18.38;55.07;98879.06;7349775;39;21404;31
2023/05/10 12:41:24;;;;;;;0.90;0.80;;;;;;;18.61;54.43;98878.44;7152288;39;20232;31
2023/05/10 12:46:59;;;;;;;1.40;1.07;;;;;;;18.34;54.24;98888.75;7395449;39;21323;31
2023/05/10 12:52:32;;;;;;;2.47;1.10;;;;;;;18.23;53.13;98886.75;7416894;39;20319;31
2023/05/10 12:57:53;;;;;;;1.70;0.77;;;;;;;18.13;53.20;98879.06;7381251;39;20243;31
2023/05/10 13:03:28;;;;;;;1.40;0.90;;;;;;;18.26;55.24;98878.94;7360262;39;21348;31
2023/05/10 13:09:04;;;;;;;1.93;0.90;;;;;;;18.75;54.79;98856.22;7337719;39;20327;31
2023/05/10 13:14:36;;;;;;;2.35;1.10;;;;;;;18.99;54.52;98861.84;7381909;39;20333;31
2023/05/10 13:19:53;;;;;;;2.33;1.20;;;;;;;19.22;54.57;98873.72;7445366;39;21322;31
2023/05/10 13:25:26;;;;;;;3.20;1.17;;;;;;;19.24;54.11;98852.47;7385536;39;21232;31
2023/05/10 13:30:47;;;;;;;1.35;1.00;;;;;;;19.42;54.22;98864.41;7423622;39;21250;31
2023/05/10 13:36:20;;;;;;;1.50;1.10;;;;;;;19.39;53.33;98857.53;7418256;39;21479;31
2023/05/10 13:41:56;;;;;;;1.43;1.10;;;;;;;19.27;52.34;98853.88;7473693;38;20253;31
2023/05/10 13:47:17;;;;;;;1.20;1.00;;;;;;;19.27;52.66;98845.69;7513503;38;20256;31
2023/05/10 13:52:52;;;;;;;1.60;1.00;;;;;;;19.39;52.04;98843.03;7492082;39;20249;31
2023/05/10 13:58:25;;;;;;;2.60;0.95;;;;;;;19.39;52.16;98837.56;7442549;39;20494;31
2023/05/10 14:03:57;;;;;;;0.90;0.83;;;;;;;19.41;53.30;98846.34;7421339;39;21431;31
2023/05/10 14:09:12;;;;;;;6.67;1.30;;;;;;;19.49;53.30;98833.22;7445782;39;20250;31
2023/05/10 14:14:45;;;;;;;2.23;1.10;;;;;;;19.53;52.79;98833.56;7419891;39;20254;31
2023/05/10 14:20:16;;;;;;;1.25;0.90;;;;;;;19.40;51.11;98820.91;7341165;39;21314;31
2023/05/10 14:25:35;;;;;;;1.30;1.20;;;;;;;19.32;52.38;98813.03;7386558;39;20243;31
2023/05/10 14:31:08;;;;;;;1.75;0.90;;;;;;;19.48;51.49;98812.44;7405844;39;20306;31
2023/05/10 14:41:45;;;;;;;1.27;0.83;;;;;;;19.20;51.40;98804.81;7423730;39;20258;31
2023/05/10 14:52:22;;;;;;;1.27;0.90;;;;;;;18.98;50.13;98816.44;7461534;39;20276;31
2023/05/10 15:02:58;;;;;;;1.10;1.00;;;;;;;18.88;52.13;98823.28;7460445;39;20408;31
2023/05/10 15:13:38;;;;;;;1.93;1.03;;;;;;;18.62;52.03;98818.16;7510712;38;21354;31
2023/05/10 15:18:59;;;;;;;1.00;0.90;;;;;;;18.52;53.43;98831.44;7492597;38;20252;31
2023/05/10 15:24:19;;;;;;;2.10;1.07;;;;;;;18.44;53.36;98827.13;7446620;39;21305;31
2023/05/10 15:29:51;;;;;;;2.95;1.10;;;;;;;18.49;53.74;98823.72;7416825;39;20357;31
2023/05/10 15:35:23;;;;;;;2.30;1.30;;;;;;;18.48;53.09;98827.50;7318273;39;21459;31
2023/05/10 15:40:42;;;;;;;1.15;0.70;;;;;;;18.34;52.57;98842.37;7346644;39;21441;31
2023/05/10 15:46:17;;;;;;;1.45;1.00;;;;;;;18.12;52.43;98836.50;7358728;39;20243;31
2023/05/10 15:51:49;;;;;;;1.75;1.00;;;;;;;18.20;53.55;98843.56;7351664;39;20428;31
2023/05/10 15:57:23;;;;;;;1.70;1.00;;;;;;;18.35;53.00;98844.84;7377950;39;21314;31
2023/05/10 16:02:59;;;;;;;2.05;1.00;;;;;;;18.45;53.50;98842.44;7373034;39;21377;31
2023/05/10 16:13:21;;;;;;;3.50;0.80;;;;;;;18.32;54.39;98847.19;7451721;39;20397;31
2023/05/10 16:24:13;;;;;;;1.97;1.10;;;;;;;18.31;54.42;98842.81;7441472;39;20259;31
2023/05/10 16:34:36;;;;;;;4.23;1.20;;;;;;;18.45;54.60;98849.81;7460641;39;20254;31
2023/05/10 16:45:11;;;;;;;1.63;0.90;;;;;;;18.52;54.33;98836.91;7447679;39;20373;31
2023/05/10 16:50:44;;;;;;;0.97;0.80;;;;;;;18.36;54.81;98837.50;7483152;39;21220;31
2023/05/10 16:56:05;;;;;;;1.00;0.83;;;;;;;18.33;54.50;98846.16;7494017;38;20237;31
2023/05/10 17:01:40;;;;;;;0.70;0.70;;;;;;;18.20;54.35;98849.84;7509796;38;21126;31
2023/05/10 17:06:57;;;;;;;0.80;0.80;;;;;;;18.12;53.47;98852.88;7465417;39;20330;31
2023/05/10 17:12:45;;;;;;;2.25;0.80;;;;;;;17.99;53.83;98864.69;7399819;39;20346;31
2023/05/10 17:18:21;;;;;;;2.07;0.97;;;;;;;17.86;54.40;98863.97;7356046;39;21405;31
2023/05/10 17:23:41;;;;;;;5.30;1.23;;;;;;;17.84;55.21;98871.53;7312127;39;21192;31
2023/05/10 17:29:16;;;;;;;1.90;1.30;;;;;;;17.75;55.93;98881.03;7375859;39;20296;31
2023/05/10 17:34:51;;;;;;;2.30;1.30;;;;;;;17.42;59.33;98894.84;7378982;39;21301;31
2023/05/10 17:40:25;;;;;;;1.57;1.00;;;;;;;17.26;60.97;98895.34;7420418;39;21269;31
2023/05/10 17:46:02;;;;;;;2.15;1.60;;;;;;;17.17;62.34;98889.31;7471591;39;21237;31
2023/05/10 17:51:33;;;;;;;1.20;0.95;;;;;;;17.12;62.09;98884.50;7487374;39;20376;31
2023/05/10 17:57:08;;;;;;;0.87;0.87;;;;;;;17.14;62.03;98884.28;7479889;39;20379;31
2023/05/10 18:02:41;;;;;;;2.80;1.70;;;;;;;17.30;61.52;98891.13;7483326;39;21181;31
2023/05/10 18:08:21;;;;;;;1.13;0.97;;;;;;;17.27;62.50;98899.75;7487377;38;21034;31
2023/05/10 18:13:37;;;;;;;2.70;1.25;;;;;;;17.14;63.29;98903.37;7494545;39;20243;31
2023/05/10 18:19:09;;;;;;;1.73;1.00;;;;;;;16.99;64.17;98898.16;7483107;39;20349;31
2023/05/10 18:24:40;;;;;;;2.50;1.90;;;;;;;16.97;63.34;98908.47;7443725;39;20258;31
2023/05/10 18:29:57;;;;;;;3.40;1.30;;;;;;;16.97;63.23;98902.19;7421110;39;20272;31
2023/05/10 18:35:18;;;;;;;2.67;1.00;;;;;;;17.01;62.91;98911.59;7427165;39;20259;31
2023/05/10 18:40:51;;;;;;;1.10;1.00;;;;;;;16.77;63.35;98907.66;7394518;39;20251;31
2023/05/10 18:46:23;;;;;;;1.35;1.10;;;;;;;16.67;63.42;98913.53;7364975;39;20245;31
2023/05/10 18:51:55;;;;;;;1.87;1.13;;;;;;;16.58;64.42;98914.84;7383399;39;20305;31
2023/05/10 18:57:31;;;;;;;1.77;1.20;;;;;;;16.49;65.08;98913.34;7391178;39;20278;31
2023/05/10 19:03:04;;;;;;;1.40;1.10;;;;;;;16.54;65.96;98929.06;7366626;39;20252;31
2023/05/10 19:08:36;;;;;;;3.83;1.33;;;;;;;16.47;66.08;98933.66;7399975;39;20423;31
2023/05/10 19:14:09;;;;;;;2.65;1.10;;;;;;;16.43;67.28;98940.56;7375447;39;20247;31
2023/05/10 19:19:26;;;;;;;2.15;1.10;;;;;;;16.52;66.23;98944.72;7133087;39;20228;31
2023/05/10 19:24:47;;;;;;;1.70;1.30;;;;;;;16.46;66.37;98951.84;7279340;40;21310;31
2023/05/10 19:30:21;;;;;;;1.93;1.00;;;;;;;16.38;66.81;98948.50;7316944;39;20245;31
2023/05/10 19:35:56;;;;;;;2.65;1.00;;;;;;;16.35;67.11;98952.50;7343009;39;21179;31
2023/05/10 19:41:29;;;;;;;1.27;1.17;;;;;;;16.36;67.49;98958.78;7294874;39;21224;31
2023/05/10 19:47:00;;;;;;;3.00;1.20;;;;;;;16.36;67.15;98959.63;7341290;39;20373;31
2023/05/10 19:52:17;;;;;;;1.40;1.10;;;;;;;16.40;67.20;98960.03;7340507;39;20339;31
2023/05/10 19:57:52;;;;;;;1.10;1.00;;;;;;;16.29;67.75;98961.47;7387336;39;20303;31
2023/05/10 20:03:27;;;;;;;2.30;1.00;;;;;;;16.26;67.47;98961.06;7440364;39;20251;31
2023/05/10 20:08:59;;;;;;;3.03;1.20;;;;;;;16.23;67.62;98978.66;7400121;39;21198;31
2023/05/10 20:14:31;;;;;;;2.73;1.10;;;;;;;16.19;68.48;98972.78;7378227;39;21232;31
2023/05/10 20:20:04;;;;;;;1.20;1.10;;;;;;;16.17;67.91;98971.31;7382076;39;21233;31
2023/05/10 20:25:34;;;;;;;1.10;1.00;;;;;;;16.18;68.07;98982.00;7379411;39;20248;31
2023/05/10 20:31:06;;;;;;;2.63;1.30;;;;;;;16.09;68.42;98969.66;7336123;39;20274;31
2023/05/10 20:36:39;;;;;;;2.65;1.25;;;;;;;16.04;69.64;98969.41;7368672;39;20251;31
2023/05/10 20:42:11;;;;;;;1.63;1.03;;;;;;;15.96;69.90;98972.34;7375103;39;20345;31
2023/05/10 20:47:43;;;;;;;1.45;1.20;;;;;;;15.77;70.06;98964.97;7444371;39;21236;31
2023/05/10 20:53:17;;;;;;;1.73;1.03;;;;;;;15.82;70.23;98967.06;7419406;39;20371;31
2023/05/10 20:58:34;;;;;;;1.53;1.10;;;;;;;15.87;70.06;98956.44;7357116;39;20274;31
2023/05/10 21:04:08;;;;;;;1.43;1.10;;;;;;;15.84;69.83;98968.53;7356889;39;21250;31
2023/05/10 21:09:42;;;;;;;2.30;1.30;;;;;;;15.73;69.85;98959.13;7347379;39;21220;31
2023/05/10 21:15:16;;;;;;;2.10;1.20;;;;;;;15.59;70.69;98967.44;7394156;39;21234;31
2023/05/10 21:20:47;;;;;;;1.23;1.10;;;;;;;15.51;70.71;98984.75;7381261;39;20351;31
2023/05/10 21:26:22;;;;;;;1.50;1.10;;;;;;;15.32;70.97;98970.00;7411697;39;21197;31
2023/05/10 21:31:53;;;;;;;2.55;1.20;;;;;;;15.21;70.87;98965.19;7419715;39;20266;31
2023/05/10 21:37:12;;;;;;;2.30;1.20;;;;;;;15.27;71.06;98971.66;7409562;39;21175;31
2023/05/10 21:42:48;;;;;;;3.67;1.50;;;;;;;15.31;70.36;98964.81;7356169;39;21336;31
2023/05/10 21:53:06;;;;;;;1.27;1.10;;;;;;;15.18;70.59;98962.84;7335997;39;20277;31
2023/05/10 22:03:43;;;;;;;1.30;0.93;;;;;;;15.05;71.20;98965.50;7471426;38;20250;31
2023/05/10 22:09:18;;;;;;;1.50;1.00;;;;;;;15.00;71.22;98969.88;7511293;38;20237;31
2023/05/10 22:14:53;;;;;;;1.43;1.10;;;;;;;14.97;70.71;98962.94;7404856;39;20238;31
2023/05/10 22:20:28;;;;;;;1.10;1.00;;;;;;;14.98;70.67;98961.91;7441038;39;20242;31
2023/05/10 22:26:03;;;;;;;1.80;1.20;;;;;;;14.94;71.09;98966.06;7441621;38;20273;31
2023/05/10 22:31:21;;;;;;;1.77;1.10;;;;;;;14.98;70.80;98967.34;7356773;39;20293;31
2023/05/10 22:36:53;;;;;;;1.10;1.00;;;;;;;14.90;70.62;98962.09;7398602;39;20262;31
2023/05/10 22:42:11;;;;;;;1.10;1.00;;;;;;;14.85;71.34;98962.69;7382958;39;20292;31
2023/05/10 22:47:43;;;;;;;1.10;1.00;;;;;;;14.76;71.50;98963.87;7424196;39;20271;31
2023/05/10 22:53:15;;;;;;;3.05;1.25;;;;;;;14.76;71.75;98965.75;7411449;39;21206;31
2023/05/10 22:58:47;;;;;;;1.50;1.10;;;;;;;14.69;71.52;98968.44;7439385;39;20413;31
2023/05/10 23:04:22;;;;;;;1.95;1.10;;;;;;;14.62;71.98;98966.69;7479493;38;20234;31
2023/05/10 23:09:56;;;;;;;2.25;1.15;;;;;;;14.62;72.34;98972.97;7379391;39;20399;31
2023/05/10 23:15:28;;;;;;;2.80;1.20;;;;;;;14.55;71.91;98977.50;7419525;39;20293;31
2023/05/10 23:20:49;;;;;;;1.95;1.00;;;;;;;14.37;71.86;98986.13;7400306;39;21400;31
2023/05/10 23:26:25;;;;;;;2.40;1.20;;;;;;;14.38;72.09;98987.81;7403670;39;21314;31
2023/05/10 23:31:57;;;;;;;3.10;1.30;;;;;;;14.35;72.77;98993.59;7430202;39;20366;31
2023/05/10 23:37:29;;;;;;;1.50;1.10;;;;;;;14.30;72.40;98996.06;7438459;39;20469;31
2023/05/10 23:43:05;;;;;;;1.20;1.10;;;;;;;14.31;72.81;98986.03;7401464;39;20317;31
2023/05/10 23:48:41;;;;;;;1.73;1.00;;;;;;;14.19;72.52;98977.59;7401113;39;20247;31
2023/05/10 23:54:14;;;;;;;1.30;1.20;;;;;;;14.09;72.87;98977.06;7400067;39;21280;31
2023/05/10 23:59:47;;;;;;;1.40;1.20;;;;;;;14.09;72.34;98976.22;7439233;39;20389;31
